Flight Track Log - Related Links

Times and Time Zones

All times are in EDT time to prevent confusion due to time zone crossing. See the DLH2037 flight status page for this flight to view local times or setup timezone preferences in your user account.


Time Position Orientation Groundspeed Altitude Reporting Facility
EDT Latitude Longitude Course Direction KTS MPH feet Rate Location/Type
Wed 07:15:00 AM 52.2921 13.1836 193° South  Level Estimated
Wed 07:16:00 AM 52.2029 13.1492 193° South  Level Estimated
Wed 07:17:00 AM 52.1137 13.1149 193° South  Level Estimated
Wed 07:18:00 AM 52.0244 13.0807 193° South  Level Estimated
Wed 07:19:00 AM 51.9352 13.0467 193° South  Level Estimated
Wed 07:20:00 AM 51.8460 13.0128 193° South  Level Estimated
Wed 07:21:00 AM 51.7567 12.9791 193° South  Level Estimated
Wed 07:22:00 AM 51.6674 12.9455 193° South  Level Estimated
Wed 07:23:00 AM 51.5782 12.9120 193° South  Level Estimated
Wed 07:24:00 AM 51.4889 12.8786 193° South  Level Estimated
Wed 07:25:00 AM 51.3812 12.8386 193° South  Level Estimated
Wed 07:26:00 AM 51.2736 12.7988 193° South  Level Estimated
Wed 07:27:00 AM 51.1660 12.7592 193° South  Level Estimated
Wed 07:28:00 AM 51.0583 12.7197 193° South  Level Estimated
Wed 07:29:00 AM 50.9506 12.6804 193° South  Level Estimated
Wed 07:30:00 AM 50.8429 12.6413 193° South  Level Estimated
Wed 07:31:00 AM 50.7352 12.6024 193° South  Level Estimated
Wed 07:32:00 AM 50.6275 12.5637 193° South  Level Estimated
Wed 07:33:00 AM 50.5198 12.5251 193° South  Level Estimated
Wed 07:34:00 AM 50.4121 12.4868 193° South  Level Estimated
Wed 07:35:00 AM 50.3043 12.4486 193° South  Level Estimated
Wed 07:36:00 AM 50.1966 12.4105 193° South  Level Estimated
Wed 07:37:00 AM 50.0888 12.3727 193° South  Level Estimated
Wed 07:38:00 AM 49.9810 12.3350 193° South  Level Estimated
Wed 07:39:00 AM 49.8732 12.2974 193° South  Level Estimated
Wed 07:40:00 AM 49.7654 12.2601 193° South  Level Estimated
Wed 07:41:00 AM 49.6576 12.2229 193° South  Level Estimated
Wed 07:42:00 AM 49.5498 12.1859 193° South  Level Estimated
Wed 07:43:00 AM 49.4419 12.1490 193° South  Level Estimated
Wed 07:44:00 AM 49.3340 12.1123 193° South  Level Estimated
Wed 07:45:00 AM 49.2262 12.0758 192° South  Level Estimated
Wed 07:46:00 AM 49.1183 12.0394 192° South  Level Estimated
Wed 07:47:00 AM 49.0104 12.0031 192° South  Level Estimated
Wed 07:48:00 AM 48.9025 11.9671 192° South  Level Estimated
Wed 07:49:00 AM 48.7946 11.9312 192° South  Level Estimated
Wed 07:50:00 AM 48.6867 11.8954 192° South  Level Estimated
Wed 07:51:00 AM 48.5787 11.8598 192° South  Level Estimated
Wed 07:52:00 AM 48.4708 11.8243 192° South  Level Estimated
Wed 07:53:00 AM 48.3628 11.7890 192° South  Level Estimated
Wed 07:54:00 AM 48.3538 11.7861 192° South  Level Estimated
Wed 07:55:00 AM 48.3538 11.7861 318° Northwest  Level Estimated
Wed 07:56:00 AM 48.3538 11.7861 318° Northwest  Level Estimated
Wed 07:57:00 AM 48.3538 11.7861 318° Northwest  Level Estimated
Wed 07:58:00 AM 48.3538 11.7861 318° Northwest  Level Estimated
Wed 07:59:00 AM 48.3538 11.7861 318° Northwest  Level Estimated
Wed 08:00:00 AM 48.3538 11.7861 318° Northwest  Level Estimated
Wed 08:01:00 AM 48.3538 11.7861 318° Northwest  Level Estimated

Login

Don't have an account? Register now (free) for customized features, flight alerts, and more!